sensor_id;sensor_type;location;lat;lon;timestamp;P1;durP1;ratioP1;P2;durP2;ratioP2
5833;SDS011;2943;48.012;10.968;2023-05-29T00:00:57;14.90;;;8.60;;
5833;SDS011;2943;48.012;10.968;2023-05-29T00:03:25;15.87;;;9.30;;
5833;SDS011;2943;48.012;10.968;2023-05-29T00:05:51;15.87;;;9.13;;
5833;SDS011;2943;48.012;10.968;2023-05-29T00:08:20;15.43;;;8.70;;
5833;SDS011;2943;48.012;10.968;2023-05-29T00:10:46;14.87;;;9.23;;
5833;SDS011;2943;48.012;10.968;2023-05-29T00:13:13;13.93;;;8.90;;
5833;SDS011;2943;48.012;10.968;2023-05-29T00:15:40;13.90;;;9.37;;
5833;SDS011;2943;48.012;10.968;2023-05-29T00:18:07;18.07;;;9.50;;
5833;SDS011;2943;48.012;10.968;2023-05-29T00:20:34;11.47;;;9.10;;
5833;SDS011;2943;48.012;10.968;2023-05-29T00:23:01;14.03;;;9.27;;
5833;SDS011;2943;48.012;10.968;2023-05-29T00:25:30;13.80;;;9.07;;
5833;SDS011;2943;48.012;10.968;2023-05-29T00:27:58;14.47;;;8.90;;
5833;SDS011;2943;48.012;10.968;2023-05-29T00:30:25;13.53;;;8.60;;
5833;SDS011;2943;48.012;10.968;2023-05-29T00:32:52;15.43;;;8.87;;
5833;SDS011;2943;48.012;10.968;2023-05-29T00:35:19;16.57;;;9.33;;
5833;SDS011;2943;48.012;10.968;2023-05-29T00:37:46;20.23;;;8.87;;
5833;SDS011;2943;48.012;10.968;2023-05-29T00:40:13;17.70;;;9.00;;
5833;SDS011;2943;48.012;10.968;2023-05-29T00:42:41;16.27;;;8.30;;
5833;SDS011;2943;48.012;10.968;2023-05-29T00:45:08;18.27;;;9.40;;
5833;SDS011;2943;48.012;10.968;2023-05-29T00:47:36;11.00;;;7.77;;
5833;SDS011;2943;48.012;10.968;2023-05-29T00:50:03;14.00;;;8.03;;
5833;SDS011;2943;48.012;10.968;2023-05-29T00:52:32;16.33;;;9.20;;
5833;SDS011;2943;48.012;10.968;2023-05-29T00:54:59;11.67;;;7.70;;
5833;SDS011;2943;48.012;10.968;2023-05-29T00:57:27;14.53;;;8.87;;
5833;SDS011;2943;48.012;10.968;2023-05-29T00:59:56;10.83;;;7.30;;
5833;SDS011;2943;48.012;10.968;2023-05-29T01:02:24;16.63;;;9.03;;
5833;SDS011;2943;48.012;10.968;2023-05-29T01:04:54;12.83;;;8.30;;
5833;SDS011;2943;48.012;10.968;2023-05-29T01:07:21;12.63;;;8.30;;
5833;SDS011;2943;48.012;10.968;2023-05-29T01:09:48;18.23;;;9.83;;
5833;SDS011;2943;48.012;10.968;2023-05-29T01:12:22;12.87;;;8.57;;
5833;SDS011;2943;48.012;10.968;2023-05-29T01:15:00;14.97;;;8.40;;
5833;SDS011;2943;48.012;10.968;2023-05-29T01:17:37;14.30;;;8.40;;
5833;SDS011;2943;48.012;10.968;2023-05-29T01:20:14;12.83;;;7.67;;
5833;SDS011;2943;48.012;10.968;2023-05-29T01:22:56;20.07;;;9.07;;
5833;SDS011;2943;48.012;10.968;2023-05-29T01:25:35;15.33;;;8.20;;
5833;SDS011;2943;48.012;10.968;2023-05-29T01:28:21;11.97;;;8.27;;
5833;SDS011;2943;48.012;10.968;2023-05-29T01:30:51;11.97;;;7.63;;
5833;SDS011;2943;48.012;10.968;2023-05-29T01:33:20;12.27;;;8.70;;
5833;SDS011;2943;48.012;10.968;2023-05-29T01:35:47;12.90;;;7.80;;
5833;SDS011;2943;48.012;10.968;2023-05-29T01:38:14;16.70;;;8.63;;
5833;SDS011;2943;48.012;10.968;2023-05-29T01:40:41;16.20;;;8.33;;
5833;SDS011;2943;48.012;10.968;2023-05-29T01:43:08;13.30;;;8.90;;
5833;SDS011;2943;48.012;10.968;2023-05-29T01:45:37;18.90;;;8.47;;
5833;SDS011;2943;48.012;10.968;2023-05-29T01:48:05;13.13;;;7.80;;
5833;SDS011;2943;48.012;10.968;2023-05-29T01:50:32;12.70;;;7.60;;
5833;SDS011;2943;48.012;10.968;2023-05-29T01:53:00;12.97;;;8.00;;
5833;SDS011;2943;48.012;10.968;2023-05-29T01:55:27;20.13;;;8.37;;
5833;SDS011;2943;48.012;10.968;2023-05-29T01:57:54;13.10;;;8.10;;
5833;SDS011;2943;48.012;10.968;2023-05-29T02:00:22;10.37;;;7.40;;
5833;SDS011;2943;48.012;10.968;2023-05-29T02:02:50;13.43;;;8.63;;
5833;SDS011;2943;48.012;10.968;2023-05-29T02:05:17;11.23;;;7.83;;
5833;SDS011;2943;48.012;10.968;2023-05-29T02:07:44;11.47;;;8.03;;
5833;SDS011;2943;48.012;10.968;2023-05-29T02:10:11;12.17;;;8.37;;
5833;SDS011;2943;48.012;10.968;2023-05-29T02:12:38;12.23;;;8.20;;
5833;SDS011;2943;48.012;10.968;2023-05-29T02:15:05;10.40;;;8.10;;
5833;SDS011;2943;48.012;10.968;2023-05-29T02:17:33;11.73;;;7.70;;
5833;SDS011;2943;48.012;10.968;2023-05-29T02:20:03;13.80;;;8.53;;
5833;SDS011;2943;48.012;10.968;2023-05-29T02:22:31;12.90;;;8.30;;
5833;SDS011;2943;48.012;10.968;2023-05-29T02:24:58;13.70;;;7.73;;
5833;SDS011;2943;48.012;10.968;2023-05-29T02:27:25;11.30;;;8.00;;
5833;SDS011;2943;48.012;10.968;2023-05-29T02:29:51;14.87;;;8.63;;
5833;SDS011;2943;48.012;10.968;2023-05-29T02:32:18;13.50;;;8.37;;
5833;SDS011;2943;48.012;10.968;2023-05-29T02:34:45;12.97;;;8.60;;
5833;SDS011;2943;48.012;10.968;2023-05-29T02:37:14;24.10;;;9.60;;
5833;SDS011;2943;48.012;10.968;2023-05-29T02:39:40;12.40;;;7.60;;
5833;SDS011;2943;48.012;10.968;2023-05-29T02:42:07;13.20;;;7.83;;
5833;SDS011;2943;48.012;10.968;2023-05-29T02:44:34;12.33;;;7.33;;
5833;SDS011;2943;48.012;10.968;2023-05-29T02:47:01;13.90;;;9.70;;
5833;SDS011;2943;48.012;10.968;2023-05-29T02:49:28;10.83;;;7.47;;
5833;SDS011;2943;48.012;10.968;2023-05-29T02:51:55;15.93;;;8.30;;
5833;SDS011;2943;48.012;10.968;2023-05-29T02:54:23;14.10;;;8.17;;
5833;SDS011;2943;48.012;10.968;2023-05-29T02:56:50;12.53;;;8.07;;
5833;SDS011;2943;48.012;10.968;2023-05-29T02:59:17;12.27;;;8.30;;
5833;SDS011;2943;48.012;10.968;2023-05-29T03:01:44;12.97;;;7.50;;
5833;SDS011;2943;48.012;10.968;2023-05-29T03:04:12;12.60;;;7.67;;
5833;SDS011;2943;48.012;10.968;2023-05-29T03:06:39;12.33;;;7.90;;
5833;SDS011;2943;48.012;10.968;2023-05-29T03:09:06;12.17;;;7.70;;
5833;SDS011;2943;48.012;10.968;2023-05-29T03:11:34;12.30;;;7.63;;
5833;SDS011;2943;48.012;10.968;2023-05-29T03:14:03;12.60;;;7.60;;
5833;SDS011;2943;48.012;10.968;2023-05-29T03:16:29;13.70;;;7.53;;
5833;SDS011;2943;48.012;10.968;2023-05-29T03:18:56;12.43;;;8.13;;
5833;SDS011;2943;48.012;10.968;2023-05-29T03:21:23;15.97;;;8.40;;
5833;SDS011;2943;48.012;10.968;2023-05-29T03:23:51;13.10;;;8.40;;
5833;SDS011;2943;48.012;10.968;2023-05-29T03:26:17;13.00;;;8.57;;
5833;SDS011;2943;48.012;10.968;2023-05-29T03:28:46;10.93;;;8.20;;
5833;SDS011;2943;48.012;10.968;2023-05-29T03:31:13;38.23;;;8.80;;
5833;SDS011;2943;48.012;10.968;2023-05-29T03:33:40;22.30;;;8.73;;
5833;SDS011;2943;48.012;10.968;2023-05-29T03:36:07;12.17;;;8.00;;
5833;SDS011;2943;48.012;10.968;2023-05-29T03:38:35;13.20;;;7.97;;
5833;SDS011;2943;48.012;10.968;2023-05-29T03:41:02;10.90;;;6.93;;
5833;SDS011;2943;48.012;10.968;2023-05-29T03:43:29;15.80;;;8.87;;
5833;SDS011;2943;48.012;10.968;2023-05-29T03:45:58;11.20;;;7.07;;
5833;SDS011;2943;48.012;10.968;2023-05-29T03:48:25;10.50;;;7.80;;
5833;SDS011;2943;48.012;10.968;2023-05-29T03:50:51;13.60;;;7.70;;
5833;SDS011;2943;48.012;10.968;2023-05-29T03:53:18;17.50;;;8.20;;
5833;SDS011;2943;48.012;10.968;2023-05-29T03:55:45;17.00;;;8.73;;
5833;SDS011;2943;48.012;10.968;2023-05-29T03:58:12;12.27;;;8.33;;
5833;SDS011;2943;48.012;10.968;2023-05-29T04:00:39;13.90;;;9.17;;
5833;SDS011;2943;48.012;10.968;2023-05-29T04:03:07;13.70;;;9.60;;
5833;SDS011;2943;48.012;10.968;2023-05-29T04:05:34;14.80;;;8.33;;
5833;SDS011;2943;48.012;10.968;2023-05-29T04:08:01;19.90;;;9.63;;
5833;SDS011;2943;48.012;10.968;2023-05-29T04:10:29;14.60;;;8.20;;
5833;SDS011;2943;48.012;10.968;2023-05-29T04:12:58;14.97;;;8.20;;
5833;SDS011;2943;48.012;10.968;2023-05-29T04:15:25;15.23;;;9.00;;
5833;SDS011;2943;48.012;10.968;2023-05-29T04:17:52;10.33;;;7.80;;
5833;SDS011;2943;48.012;10.968;2023-05-29T04:20:21;14.87;;;8.57;;
5833;SDS011;2943;48.012;10.968;2023-05-29T04:22:48;14.03;;;8.63;;
5833;SDS011;2943;48.012;10.968;2023-05-29T04:25:15;15.30;;;8.40;;
5833;SDS011;2943;48.012;10.968;2023-05-29T04:27:43;12.97;;;7.80;;
5833;SDS011;2943;48.012;10.968;2023-05-29T04:30:13;12.70;;;7.43;;
5833;SDS011;2943;48.012;10.968;2023-05-29T04:32:41;14.20;;;8.07;;
5833;SDS011;2943;48.012;10.968;2023-05-29T04:35:08;14.00;;;8.90;;
5833;SDS011;2943;48.012;10.968;2023-05-29T04:37:37;12.90;;;9.43;;
5833;SDS011;2943;48.012;10.968;2023-05-29T04:40:05;12.30;;;7.67;;
5833;SDS011;2943;48.012;10.968;2023-05-29T04:42:34;13.60;;;8.37;;
5833;SDS011;2943;48.012;10.968;2023-05-29T04:45:01;18.50;;;8.60;;
5833;SDS011;2943;48.012;10.968;2023-05-29T04:47:29;10.93;;;8.83;;
5833;SDS011;2943;48.012;10.968;2023-05-29T04:49:58;14.87;;;9.30;;
5833;SDS011;2943;48.012;10.968;2023-05-29T04:52:25;16.80;;;8.50;;
5833;SDS011;2943;48.012;10.968;2023-05-29T04:54:53;17.57;;;8.87;;
5833;SDS011;2943;48.012;10.968;2023-05-29T04:57:21;13.00;;;8.40;;
5833;SDS011;2943;48.012;10.968;2023-05-29T04:59:48;16.23;;;8.70;;
5833;SDS011;2943;48.012;10.968;2023-05-29T05:02:15;15.70;;;9.33;;
5833;SDS011;2943;48.012;10.968;2023-05-29T05:04:42;16.93;;;8.77;;
5833;SDS011;2943;48.012;10.968;2023-05-29T05:07:10;13.50;;;8.60;;
5833;SDS011;2943;48.012;10.968;2023-05-29T05:09:38;15.37;;;9.00;;
5833;SDS011;2943;48.012;10.968;2023-05-29T05:12:06;11.30;;;8.07;;
5833;SDS011;2943;48.012;10.968;2023-05-29T05:14:34;14.40;;;7.90;;
5833;SDS011;2943;48.012;10.968;2023-05-29T05:17:00;11.73;;;8.13;;
5833;SDS011;2943;48.012;10.968;2023-05-29T05:19:28;13.60;;;8.40;;
5833;SDS011;2943;48.012;10.968;2023-05-29T05:21:55;13.47;;;9.00;;
5833;SDS011;2943;48.012;10.968;2023-05-29T05:24:22;15.70;;;9.07;;
5833;SDS011;2943;48.012;10.968;2023-05-29T05:26:49;20.13;;;10.20;;
5833;SDS011;2943;48.012;10.968;2023-05-29T05:29:17;18.37;;;10.10;;
5833;SDS011;2943;48.012;10.968;2023-05-29T05:31:44;16.90;;;10.03;;
5833;SDS011;2943;48.012;10.968;2023-05-29T05:34:11;19.30;;;10.50;;
5833;SDS011;2943;48.012;10.968;2023-05-29T05:36:38;21.53;;;11.47;;
5833;SDS011;2943;48.012;10.968;2023-05-29T05:39:05;17.23;;;10.20;;
5833;SDS011;2943;48.012;10.968;2023-05-29T05:41:32;17.57;;;10.70;;
5833;SDS011;2943;48.012;10.968;2023-05-29T05:43:59;17.93;;;10.20;;
5833;SDS011;2943;48.012;10.968;2023-05-29T05:46:27;18.67;;;10.50;;
5833;SDS011;2943;48.012;10.968;2023-05-29T05:48:54;18.07;;;10.70;;
5833;SDS011;2943;48.012;10.968;2023-05-29T05:51:22;15.70;;;9.97;;
5833;SDS011;2943;48.012;10.968;2023-05-29T05:53:49;17.13;;;11.20;;
5833;SDS011;2943;48.012;10.968;2023-05-29T05:56:16;20.87;;;10.50;;
5833;SDS011;2943;48.012;10.968;2023-05-29T05:58:43;16.73;;;10.00;;
5833;SDS011;2943;48.012;10.968;2023-05-29T06:01:10;18.57;;;10.50;;
5833;SDS011;2943;48.012;10.968;2023-05-29T06:03:39;17.83;;;10.50;;
5833;SDS011;2943;48.012;10.968;2023-05-29T06:06:06;17.73;;;10.80;;
5833;SDS011;2943;48.012;10.968;2023-05-29T06:08:33;15.10;;;10.47;;
5833;SDS011;2943;48.012;10.968;2023-05-29T06:11:00;18.90;;;10.80;;
5833;SDS011;2943;48.012;10.968;2023-05-29T06:13:27;18.10;;;10.40;;
5833;SDS011;2943;48.012;10.968;2023-05-29T06:15:54;19.87;;;9.97;;
5833;SDS011;2943;48.012;10.968;2023-05-29T06:18:21;20.90;;;9.67;;
5833;SDS011;2943;48.012;10.968;2023-05-29T06:20:49;19.70;;;10.03;;
5833;SDS011;2943;48.012;10.968;2023-05-29T06:23:16;18.27;;;9.70;;
5833;SDS011;2943;48.012;10.968;2023-05-29T06:25:43;18.43;;;10.23;;
5833;SDS011;2943;48.012;10.968;2023-05-29T06:28:11;13.57;;;8.40;;
5833;SDS011;2943;48.012;10.968;2023-05-29T06:30:38;15.57;;;9.03;;
5833;SDS011;2943;48.012;10.968;2023-05-29T06:33:05;12.43;;;8.00;;
5833;SDS011;2943;48.012;10.968;2023-05-29T06:35:32;14.20;;;8.50;;
5833;SDS011;2943;48.012;10.968;2023-05-29T06:38:00;14.50;;;8.70;;
5833;SDS011;2943;48.012;10.968;2023-05-29T06:40:27;13.87;;;8.00;;
5833;SDS011;2943;48.012;10.968;2023-05-29T06:42:54;17.80;;;8.13;;
5833;SDS011;2943;48.012;10.968;2023-05-29T06:45:21;11.57;;;8.03;;
5833;SDS011;2943;48.012;10.968;2023-05-29T06:47:48;16.87;;;8.93;;
5833;SDS011;2943;48.012;10.968;2023-05-29T06:50:15;15.50;;;8.93;;
5833;SDS011;2943;48.012;10.968;2023-05-29T06:52:42;15.37;;;8.10;;
5833;SDS011;2943;48.012;10.968;2023-05-29T06:55:10;14.37;;;8.50;;
5833;SDS011;2943;48.012;10.968;2023-05-29T06:57:37;10.70;;;7.27;;
5833;SDS011;2943;48.012;10.968;2023-05-29T07:00:04;18.10;;;8.57;;
5833;SDS011;2943;48.012;10.968;2023-05-29T07:02:32;13.87;;;8.57;;
5833;SDS011;2943;48.012;10.968;2023-05-29T07:04:59;15.97;;;8.97;;
5833;SDS011;2943;48.012;10.968;2023-05-29T07:07:26;11.67;;;7.60;;
5833;SDS011;2943;48.012;10.968;2023-05-29T07:09:54;12.90;;;7.87;;
5833;SDS011;2943;48.012;10.968;2023-05-29T07:12:23;11.40;;;7.10;;
5833;SDS011;2943;48.012;10.968;2023-05-29T07:14:49;13.83;;;7.97;;
5833;SDS011;2943;48.012;10.968;2023-05-29T07:17:16;12.67;;;8.10;;
5833;SDS011;2943;48.012;10.968;2023-05-29T07:19:43;11.60;;;7.40;;
5833;SDS011;2943;48.012;10.968;2023-05-29T07:22:10;12.27;;;7.80;;
5833;SDS011;2943;48.012;10.968;2023-05-29T07:24:37;15.40;;;8.00;;
5833;SDS011;2943;48.012;10.968;2023-05-29T07:27:04;13.23;;;8.17;;
5833;SDS011;2943;48.012;10.968;2023-05-29T07:29:32;12.70;;;7.70;;
5833;SDS011;2943;48.012;10.968;2023-05-29T07:32:00;10.60;;;7.07;;
5833;SDS011;2943;48.012;10.968;2023-05-29T07:34:27;11.07;;;6.73;;
5833;SDS011;2943;48.012;10.968;2023-05-29T07:36:57;11.60;;;7.03;;
5833;SDS011;2943;48.012;10.968;2023-05-29T07:39:26;10.60;;;7.17;;
5833;SDS011;2943;48.012;10.968;2023-05-29T07:41:53;13.37;;;7.80;;
5833;SDS011;2943;48.012;10.968;2023-05-29T07:44:20;11.03;;;7.40;;
5833;SDS011;2943;48.012;10.968;2023-05-29T07:46:48;13.20;;;7.30;;
5833;SDS011;2943;48.012;10.968;2023-05-29T07:49:15;18.10;;;7.43;;
5833;SDS011;2943;48.012;10.968;2023-05-29T07:51:42;19.30;;;8.53;;
5833;SDS011;2943;48.012;10.968;2023-05-29T07:54:09;12.53;;;7.27;;
5833;SDS011;2943;48.012;10.968;2023-05-29T07:56:36;11.77;;;7.73;;
5833;SDS011;2943;48.012;10.968;2023-05-29T07:59:03;11.37;;;7.60;;
5833;SDS011;2943;48.012;10.968;2023-05-29T08:01:30;11.40;;;7.47;;
5833;SDS011;2943;48.012;10.968;2023-05-29T08:03:58;11.60;;;7.27;;
5833;SDS011;2943;48.012;10.968;2023-05-29T08:06:25;15.63;;;9.00;;
5833;SDS011;2943;48.012;10.968;2023-05-29T08:08:52;13.90;;;7.80;;
5833;SDS011;2943;48.012;10.968;2023-05-29T08:11:19;15.40;;;8.13;;
5833;SDS011;2943;48.012;10.968;2023-05-29T08:13:48;10.00;;;6.70;;
5833;SDS011;2943;48.012;10.968;2023-05-29T08:16:15;10.90;;;7.40;;
5833;SDS011;2943;48.012;10.968;2023-05-29T08:18:42;10.67;;;7.20;;
5833;SDS011;2943;48.012;10.968;2023-05-29T08:21:10;11.57;;;7.23;;
5833;SDS011;2943;48.012;10.968;2023-05-29T08:23:37;9.73;;;6.70;;
5833;SDS011;2943;48.012;10.968;2023-05-29T08:26:04;9.80;;;6.40;;
5833;SDS011;2943;48.012;10.968;2023-05-29T08:28:31;9.13;;;7.27;;
5833;SDS011;2943;48.012;10.968;2023-05-29T08:30:58;9.90;;;7.53;;
5833;SDS011;2943;48.012;10.968;2023-05-29T08:33:26;11.03;;;6.70;;
5833;SDS011;2943;48.012;10.968;2023-05-29T08:35:53;12.17;;;6.60;;
5833;SDS011;2943;48.012;10.968;2023-05-29T08:38:21;11.00;;;7.00;;
5833;SDS011;2943;48.012;10.968;2023-05-29T08:40:50;9.60;;;5.90;;
5833;SDS011;2943;48.012;10.968;2023-05-29T08:43:19;9.87;;;6.40;;
5833;SDS011;2943;48.012;10.968;2023-05-29T08:45:50;9.13;;;6.40;;
5833;SDS011;2943;48.012;10.968;2023-05-29T08:48:21;8.80;;;6.30;;
5833;SDS011;2943;48.012;10.968;2023-05-29T08:50:50;11.60;;;6.80;;
5833;SDS011;2943;48.012;10.968;2023-05-29T08:53:21;10.03;;;6.40;;
5833;SDS011;2943;48.012;10.968;2023-05-29T08:55:49;10.10;;;7.03;;
5833;SDS011;2943;48.012;10.968;2023-05-29T08:58:17;9.87;;;6.40;;
5833;SDS011;2943;48.012;10.968;2023-05-29T09:00:45;17.13;;;7.40;;
5833;SDS011;2943;48.012;10.968;2023-05-29T09:03:13;10.20;;;6.53;;
5833;SDS011;2943;48.012;10.968;2023-05-29T09:05:40;9.60;;;6.60;;
5833;SDS011;2943;48.012;10.968;2023-05-29T09:08:08;10.47;;;6.90;;
5833;SDS011;2943;48.012;10.968;2023-05-29T09:10:38;14.03;;;7.30;;
5833;SDS011;2943;48.012;10.968;2023-05-29T09:13:06;14.73;;;7.50;;
5833;SDS011;2943;48.012;10.968;2023-05-29T09:15:35;18.40;;;7.30;;
5833;SDS011;2943;48.012;10.968;2023-05-29T09:18:03;11.27;;;6.90;;
5833;SDS011;2943;48.012;10.968;2023-05-29T09:20:30;10.40;;;6.30;;
5833;SDS011;2943;48.012;10.968;2023-05-29T09:22:58;11.80;;;6.53;;
5833;SDS011;2943;48.012;10.968;2023-05-29T09:25:27;8.70;;;6.40;;
5833;SDS011;2943;48.012;10.968;2023-05-29T09:27:59;10.43;;;6.67;;
5833;SDS011;2943;48.012;10.968;2023-05-29T09:30:31;14.13;;;7.00;;
5833;SDS011;2943;48.012;10.968;2023-05-29T09:32:59;9.33;;;6.23;;
5833;SDS011;2943;48.012;10.968;2023-05-29T09:35:27;14.53;;;6.30;;
5833;SDS011;2943;48.012;10.968;2023-05-29T09:38:10;7.53;;;5.90;;
5833;SDS011;2943;48.012;10.968;2023-05-29T09:40:45;9.70;;;5.53;;
5833;SDS011;2943;48.012;10.968;2023-05-29T09:43:44;10.60;;;6.10;;
5833;SDS011;2943;48.012;10.968;2023-05-29T09:46:50;12.10;;;6.00;;
5833;SDS011;2943;48.012;10.968;2023-05-29T09:49:45;10.70;;;6.80;;
5833;SDS011;2943;48.012;10.968;2023-05-29T09:52:38;9.47;;;6.23;;
5833;SDS011;2943;48.012;10.968;2023-05-29T09:55:27;13.80;;;6.27;;
5833;SDS011;2943;48.012;10.968;2023-05-29T09:57:59;10.83;;;6.27;;
5833;SDS011;2943;48.012;10.968;2023-05-29T10:03:25;9.10;;;6.07;;
5833;SDS011;2943;48.012;10.968;2023-05-29T10:06:16;11.10;;;5.70;;
5833;SDS011;2943;48.012;10.968;2023-05-29T10:09:10;9.23;;;5.53;;
5833;SDS011;2943;48.012;10.968;2023-05-29T10:11:53;7.63;;;5.60;;
5833;SDS011;2943;48.012;10.968;2023-05-29T10:17:59;9.60;;;5.77;;
5833;SDS011;2943;48.012;10.968;2023-05-29T10:20:50;9.47;;;5.73;;
5833;SDS011;2943;48.012;10.968;2023-05-29T10:23:31;5.93;;;5.10;;
5833;SDS011;2943;48.012;10.968;2023-05-29T10:26:21;12.40;;;5.80;;
5833;SDS011;2943;48.012;10.968;2023-05-29T10:29:17;15.47;;;6.00;;
5833;SDS011;2943;48.012;10.968;2023-05-29T10:32:16;8.13;;;4.80;;
5833;SDS011;2943;48.012;10.968;2023-05-29T10:35:22;9.37;;;5.50;;
5833;SDS011;2943;48.012;10.968;2023-05-29T10:47:42;10.10;;;5.77;;
5833;SDS011;2943;48.012;10.968;2023-05-29T10:50:42;12.77;;;5.53;;
5833;SDS011;2943;48.012;10.968;2023-05-29T10:53:34;9.47;;;5.63;;
5833;SDS011;2943;48.012;10.968;2023-05-29T10:56:23;7.80;;;5.40;;
5833;SDS011;2943;48.012;10.968;2023-05-29T10:59:19;10.20;;;6.03;;
5833;SDS011;2943;48.012;10.968;2023-05-29T11:02:04;6.03;;;5.40;;
5833;SDS011;2943;48.012;10.968;2023-05-29T11:04:34;9.67;;;5.70;;
5833;SDS011;2943;48.012;10.968;2023-05-29T11:07:51;7.17;;;6.00;;
5833;SDS011;2943;48.012;10.968;2023-05-29T11:13:09;8.27;;;5.43;;
5833;SDS011;2943;48.012;10.968;2023-05-29T11:15:39;10.17;;;5.40;;
5833;SDS011;2943;48.012;10.968;2023-05-29T11:18:15;9.67;;;6.23;;
5833;SDS011;2943;48.012;10.968;2023-05-29T11:21:12;9.90;;;5.40;;
5833;SDS011;2943;48.012;10.968;2023-05-29T11:23:53;8.60;;;6.13;;
5833;SDS011;2943;48.012;10.968;2023-05-29T11:26:22;11.40;;;6.30;;
5833;SDS011;2943;48.012;10.968;2023-05-29T11:29:02;9.30;;;5.60;;
5833;SDS011;2943;48.012;10.968;2023-05-29T11:31:39;10.47;;;5.93;;
5833;SDS011;2943;48.012;10.968;2023-05-29T11:34:27;7.13;;;5.60;;
5833;SDS011;2943;48.012;10.968;2023-05-29T11:37:12;7.97;;;5.63;;
5833;SDS011;2943;48.012;10.968;2023-05-29T11:39:52;7.87;;;5.90;;
5833;SDS011;2943;48.012;10.968;2023-05-29T11:42:33;9.87;;;5.23;;
5833;SDS011;2943;48.012;10.968;2023-05-29T11:45:16;8.10;;;5.50;;
5833;SDS011;2943;48.012;10.968;2023-05-29T11:47:51;8.50;;;5.70;;
5833;SDS011;2943;48.012;10.968;2023-05-29T11:50:19;7.97;;;5.57;;
5833;SDS011;2943;48.012;10.968;2023-05-29T11:52:46;10.80;;;5.50;;
5833;SDS011;2943;48.012;10.968;2023-05-29T11:55:14;7.43;;;6.03;;
5833;SDS011;2943;48.012;10.968;2023-05-29T11:57:41;7.80;;;5.70;;
5833;SDS011;2943;48.012;10.968;2023-05-29T12:00:12;8.97;;;5.63;;
5833;SDS011;2943;48.012;10.968;2023-05-29T12:02:39;9.23;;;5.60;;
5833;SDS011;2943;48.012;10.968;2023-05-29T12:05:08;8.83;;;5.70;;
5833;SDS011;2943;48.012;10.968;2023-05-29T12:07:37;9.90;;;5.73;;
5833;SDS011;2943;48.012;10.968;2023-05-29T12:10:10;11.53;;;5.40;;
5833;SDS011;2943;48.012;10.968;2023-05-29T12:12:39;8.00;;;5.83;;
5833;SDS011;2943;48.012;10.968;2023-05-29T12:15:07;6.20;;;4.90;;
5833;SDS011;2943;48.012;10.968;2023-05-29T12:17:35;10.77;;;5.50;;
5833;SDS011;2943;48.012;10.968;2023-05-29T12:20:03;6.83;;;4.77;;
5833;SDS011;2943;48.012;10.968;2023-05-29T12:22:33;7.17;;;5.40;;
5833;SDS011;2943;48.012;10.968;2023-05-29T12:25:07;10.37;;;5.33;;
5833;SDS011;2943;48.012;10.968;2023-05-29T12:27:37;8.03;;;5.37;;
5833;SDS011;2943;48.012;10.968;2023-05-29T12:30:09;6.80;;;4.70;;
5833;SDS011;2943;48.012;10.968;2023-05-29T12:32:37;8.40;;;5.00;;
5833;SDS011;2943;48.012;10.968;2023-05-29T12:35:15;9.40;;;5.40;;
5833;SDS011;2943;48.012;10.968;2023-05-29T12:37:43;7.70;;;4.40;;
5833;SDS011;2943;48.012;10.968;2023-05-29T12:40:15;7.87;;;4.77;;
5833;SDS011;2943;48.012;10.968;2023-05-29T12:42:45;10.23;;;5.63;;
5833;SDS011;2943;48.012;10.968;2023-05-29T12:45:12;6.10;;;3.83;;
5833;SDS011;2943;48.012;10.968;2023-05-29T12:47:46;10.10;;;5.60;;
5833;SDS011;2943;48.012;10.968;2023-05-29T12:50:21;12.70;;;5.57;;
5833;SDS011;2943;48.012;10.968;2023-05-29T12:52:55;7.30;;;4.83;;
5833;SDS011;2943;48.012;10.968;2023-05-29T12:55:23;7.53;;;5.87;;
5833;SDS011;2943;48.012;10.968;2023-05-29T12:57:52;26.17;;;16.90;;
5833;SDS011;2943;48.012;10.968;2023-05-29T13:00:20;14.60;;;9.73;;
5833;SDS011;2943;48.012;10.968;2023-05-29T13:02:47;10.07;;;6.43;;
5833;SDS011;2943;48.012;10.968;2023-05-29T13:05:15;7.50;;;5.37;;
5833;SDS011;2943;48.012;10.968;2023-05-29T13:07:44;9.20;;;4.90;;
5833;SDS011;2943;48.012;10.968;2023-05-29T13:10:12;5.30;;;4.73;;
5833;SDS011;2943;48.012;10.968;2023-05-29T13:12:39;9.20;;;5.30;;
5833;SDS011;2943;48.012;10.968;2023-05-29T13:15:09;10.30;;;5.70;;
5833;SDS011;2943;48.012;10.968;2023-05-29T13:17:36;7.60;;;5.07;;
5833;SDS011;2943;48.012;10.968;2023-05-29T13:20:06;9.30;;;4.97;;
5833;SDS011;2943;48.012;10.968;2023-05-29T13:22:34;7.83;;;4.93;;
5833;SDS011;2943;48.012;10.968;2023-05-29T13:25:01;7.63;;;5.30;;
5833;SDS011;2943;48.012;10.968;2023-05-29T13:27:31;13.30;;;5.13;;
5833;SDS011;2943;48.012;10.968;2023-05-29T13:29:58;6.17;;;5.13;;
5833;SDS011;2943;48.012;10.968;2023-05-29T13:32:26;5.30;;;4.10;;
5833;SDS011;2943;48.012;10.968;2023-05-29T13:34:53;5.77;;;4.53;;
5833;SDS011;2943;48.012;10.968;2023-05-29T13:37:20;5.47;;;4.20;;
5833;SDS011;2943;48.012;10.968;2023-05-29T13:39:47;6.87;;;4.83;;
5833;SDS011;2943;48.012;10.968;2023-05-29T13:42:14;7.70;;;4.70;;
5833;SDS011;2943;48.012;10.968;2023-05-29T13:44:42;10.00;;;5.53;;
5833;SDS011;2943;48.012;10.968;2023-05-29T13:47:08;5.80;;;4.17;;
5833;SDS011;2943;48.012;10.968;2023-05-29T13:49:36;6.00;;;3.90;;
5833;SDS011;2943;48.012;10.968;2023-05-29T13:52:03;8.40;;;4.33;;
5833;SDS011;2943;48.012;10.968;2023-05-29T13:54:31;6.60;;;4.53;;
5833;SDS011;2943;48.012;10.968;2023-05-29T13:57:00;5.67;;;4.37;;
5833;SDS011;2943;48.012;10.968;2023-05-29T13:59:28;6.03;;;4.70;;
5833;SDS011;2943;48.012;10.968;2023-05-29T14:01:54;7.50;;;4.57;;
5833;SDS011;2943;48.012;10.968;2023-05-29T14:04:21;8.47;;;4.63;;
5833;SDS011;2943;48.012;10.968;2023-05-29T14:06:50;9.20;;;4.70;;
5833;SDS011;2943;48.012;10.968;2023-05-29T14:09:16;5.30;;;4.60;;
5833;SDS011;2943;48.012;10.968;2023-05-29T14:11:47;9.67;;;5.50;;
5833;SDS011;2943;48.012;10.968;2023-05-29T14:14:14;9.00;;;4.80;;
5833;SDS011;2943;48.012;10.968;2023-05-29T14:16:41;6.10;;;4.50;;
5833;SDS011;2943;48.012;10.968;2023-05-29T14:19:08;18.00;;;5.10;;
5833;SDS011;2943;48.012;10.968;2023-05-29T14:21:35;6.20;;;4.50;;
5833;SDS011;2943;48.012;10.968;2023-05-29T14:24:03;8.27;;;4.50;;
5833;SDS011;2943;48.012;10.968;2023-05-29T14:26:30;6.93;;;4.80;;
5833;SDS011;2943;48.012;10.968;2023-05-29T14:28:57;7.07;;;5.30;;
5833;SDS011;2943;48.012;10.968;2023-05-29T14:31:23;7.50;;;4.33;;
5833;SDS011;2943;48.012;10.968;2023-05-29T14:33:50;6.73;;;4.97;;
5833;SDS011;2943;48.012;10.968;2023-05-29T14:36:17;7.80;;;4.70;;
5833;SDS011;2943;48.012;10.968;2023-05-29T14:38:44;6.00;;;4.40;;
5833;SDS011;2943;48.012;10.968;2023-05-29T14:41:12;7.13;;;5.00;;
5833;SDS011;2943;48.012;10.968;2023-05-29T14:43:41;8.23;;;4.73;;
5833;SDS011;2943;48.012;10.968;2023-05-29T14:46:08;8.97;;;5.23;;
5833;SDS011;2943;48.012;10.968;2023-05-29T14:48:34;5.73;;;4.57;;
5833;SDS011;2943;48.012;10.968;2023-05-29T14:51:01;8.73;;;4.87;;
5833;SDS011;2943;48.012;10.968;2023-05-29T14:53:28;6.27;;;4.93;;
5833;SDS011;2943;48.012;10.968;2023-05-29T14:55:56;7.07;;;4.83;;
5833;SDS011;2943;48.012;10.968;2023-05-29T14:58:24;7.07;;;4.90;;
5833;SDS011;2943;48.012;10.968;2023-05-29T15:00:51;6.70;;;4.70;;
5833;SDS011;2943;48.012;10.968;2023-05-29T15:03:19;6.97;;;4.67;;
5833;SDS011;2943;48.012;10.968;2023-05-29T15:05:45;6.47;;;4.67;;
5833;SDS011;2943;48.012;10.968;2023-05-29T15:08:12;6.90;;;4.70;;
5833;SDS011;2943;48.012;10.968;2023-05-29T15:10:39;5.67;;;4.47;;
5833;SDS011;2943;48.012;10.968;2023-05-29T15:13:06;8.33;;;4.40;;
5833;SDS011;2943;48.012;10.968;2023-05-29T15:15:34;9.33;;;4.87;;
5833;SDS011;2943;48.012;10.968;2023-05-29T15:18:01;6.33;;;4.67;;
5833;SDS011;2943;48.012;10.968;2023-05-29T15:20:28;8.40;;;4.87;;
5833;SDS011;2943;48.012;10.968;2023-05-29T15:22:54;5.53;;;3.93;;
5833;SDS011;2943;48.012;10.968;2023-05-29T15:25:21;6.47;;;4.73;;